SBOSBO CTA / LICC
Speedbird OnlineSpeedbird Online CTA / LICC

Catania-Fontanarossa Airport
08:35 18.9°C

Location Catania, Italy
Latitude: 37.466801
Longitude: 15.0664
Web Airport Website | Wikipedia
Altitude 12 Meter / 39 Feet
Distance 1,952 KM / 1,213 Miles
from London.
Time Zone UTC +2 hours (Europe/Rome)
Codes IATA: CTA
ICAO: LICC
Currency £1 equals EUR 1.15
Runways
RunwayLength (m)Surface
082435Asphalt
262435Asphalt
Radio
TypeDescriptionFrequency
APPAPP119.25
DIRDIRECTOR120.8
GNDGND129.725
TWRTWR118.7
Live ATC
METAR LICC 060620Z 22003KT CAVOK 16/14 Q1026
TAF TAF LICC 060500Z 0606/0706 25006KT 9999 SCT030 BECMG 0608/0610 12010KT BECMG 0616/0618 VRB05KT
Weather As Of 06 Oct 2022 08:35
Description Clear sky
Wind 6 km/h from South-West (220°)
Cloud Cover 0%
Precipitation Rain: none, Snow: none
Sunrise 06:59
Sunset 18:36
Lounges SAC Lounge, main terminal
Rotations During the last 90 days there were
78 flights from LGW
44 flights from LHR
78 flights to LGW
44 flights to LHR


© 2017-2022 Speedbird Online